Disclaimer

Please do not use the information listed here in-flight or in-navigation, as they are not provided to us by the airports but are provided by volunteers, so they might be outdated.

Search


Regions


Airport information page

Radio informations:
WINNIPEG CNTR - 134.325 MHz
Approach/Departure (APP/DEP) - 119.9 MHz

Airport informations:
Latitude: 52° 10' 15.00" N
Longitude: 106° 41' 59.00" W
Elevation: 1653 feet - 504 meters
Operating hours: N/A
Operating agency: Municipal
Timezone: N/A
Fuel: Jet B, Wide cut turbine fuel, Without icing inhibitor.

JP-4, Wide cut turbine fuel MIL Spec T-5624

Jet A1, without icing nhibitor.

100/130 MIL Spec, low lead, aviation gasoline (BLUE)

Runway information:
09/27 - 8300 x 200 feet< - >2530 x 61 meters
15/33 - 6200 x 150 feet< - >1890 x 46 meters

Recent METARs:
CYXE 181600Z 10009KT 6SM -SN SCT020 BKN093 BKN150 M11/M14 A2998 RMK SC4AC1AC2 SLP195
CYXE 181700Z 09009KT 5SM -SN BKN024 OVC085 M11/M14 A2997 RMK SC6AC2 SLP193
CYXE 181700Z 09009KT 5SM -SN BKN024 OVC085 M11/M14 A2997 RMK SC6AC2 SLP193

Airport on the map: